sensor_id;sensor_type;location;lat;lon;timestamp;P1;durP1;ratioP1;P2;durP2;ratioP2
56239;SDS011;42154;51.992;5.896;2022-09-11T00:01:12;20.75;;;15.80;;
56239;SDS011;42154;51.992;5.896;2022-09-11T00:03:39;27.55;;;20.63;;
56239;SDS011;42154;51.992;5.896;2022-09-11T00:06:07;26.02;;;18.67;;
56239;SDS011;42154;51.992;5.896;2022-09-11T00:08:35;34.63;;;23.63;;
56239;SDS011;42154;51.992;5.896;2022-09-11T00:13:33;22.42;;;17.13;;
56239;SDS011;42154;51.992;5.896;2022-09-11T00:16:03;20.55;;;15.82;;
56239;SDS011;42154;51.992;5.896;2022-09-11T00:18:31;22.27;;;16.42;;
56239;SDS011;42154;51.992;5.896;2022-09-11T00:21:00;22.05;;;17.00;;
56239;SDS011;42154;51.992;5.896;2022-09-11T00:23:26;22.77;;;16.20;;
56239;SDS011;42154;51.992;5.896;2022-09-11T00:25:52;23.75;;;17.90;;
56239;SDS011;42154;51.992;5.896;2022-09-11T00:28:19;22.02;;;17.15;;
56239;SDS011;42154;51.992;5.896;2022-09-11T00:30:55;20.90;;;17.40;;
56239;SDS011;42154;51.992;5.896;2022-09-11T00:33:41;23.17;;;17.10;;
56239;SDS011;42154;51.992;5.896;2022-09-11T00:36:11;22.17;;;16.13;;
56239;SDS011;42154;51.992;5.896;2022-09-11T00:38:42;37.95;;;27.27;;
56239;SDS011;42154;51.992;5.896;2022-09-11T00:41:15;33.65;;;24.23;;
56239;SDS011;42154;51.992;5.896;2022-09-11T00:43:55;22.40;;;17.00;;
56239;SDS011;42154;51.992;5.896;2022-09-11T00:46:41;43.53;;;26.42;;
56239;SDS011;42154;51.992;5.896;2022-09-11T00:52:05;26.02;;;20.05;;
56239;SDS011;42154;51.992;5.896;2022-09-11T00:54:39;114.40;;;33.03;;
56239;SDS011;42154;51.992;5.896;2022-09-11T00:57:08;31.98;;;23.83;;
56239;SDS011;42154;51.992;5.896;2022-09-11T00:59:36;27.95;;;18.67;;
56239;SDS011;42154;51.992;5.896;2022-09-11T01:02:07;35.03;;;20.75;;
56239;SDS011;42154;51.992;5.896;2022-09-11T01:04:34;20.83;;;15.75;;
56239;SDS011;42154;51.992;5.896;2022-09-11T01:07:02;42.95;;;20.27;;
56239;SDS011;42154;51.992;5.896;2022-09-11T01:09:28;35.80;;;20.40;;
56239;SDS011;42154;51.992;5.896;2022-09-11T01:14:31;38.50;;;17.92;;
56239;SDS011;42154;51.992;5.896;2022-09-11T01:25:40;23.63;;;17.65;;
56239;SDS011;42154;51.992;5.896;2022-09-11T01:31:00;31.70;;;20.85;;
56239;SDS011;42154;51.992;5.896;2022-09-11T01:33:43;21.05;;;16.90;;
56239;SDS011;42154;51.992;5.896;2022-09-11T01:36:19;17.55;;;15.07;;
56239;SDS011;42154;51.992;5.896;2022-09-11T01:38:57;17.67;;;14.07;;
56239;SDS011;42154;51.992;5.896;2022-09-11T01:41:41;27.40;;;18.35;;
56239;SDS011;42154;51.992;5.896;2022-09-11T01:44:18;19.98;;;15.63;;
56239;SDS011;42154;51.992;5.896;2022-09-11T01:46:56;17.08;;;14.23;;
56239;SDS011;42154;51.992;5.896;2022-09-11T01:49:27;16.42;;;14.20;;
56239;SDS011;42154;51.992;5.896;2022-09-11T01:52:14;17.92;;;12.40;;
56239;SDS011;42154;51.992;5.896;2022-09-11T01:54:53;16.33;;;13.10;;
56239;SDS011;42154;51.992;5.896;2022-09-11T01:57:37;15.82;;;12.10;;
56239;SDS011;42154;51.992;5.896;2022-09-11T02:02:51;12.98;;;10.27;;
56239;SDS011;42154;51.992;5.896;2022-09-11T02:05:37;11.85;;;10.55;;
56239;SDS011;42154;51.992;5.896;2022-09-11T02:08:43;16.60;;;14.80;;
56239;SDS011;42154;51.992;5.896;2022-09-11T02:11:10;13.75;;;11.45;;
56239;SDS011;42154;51.992;5.896;2022-09-11T02:13:45;15.45;;;11.75;;
56239;SDS011;42154;51.992;5.896;2022-09-11T02:16:50;13.98;;;11.45;;
56239;SDS011;42154;51.992;5.896;2022-09-11T02:19:19;14.80;;;11.68;;
56239;SDS011;42154;51.992;5.896;2022-09-11T02:21:48;15.88;;;13.32;;
56239;SDS011;42154;51.992;5.896;2022-09-11T02:24:17;13.60;;;11.48;;
56239;SDS011;42154;51.992;5.896;2022-09-11T02:26:48;14.95;;;11.15;;
56239;SDS011;42154;51.992;5.896;2022-09-11T02:29:18;15.15;;;12.70;;
56239;SDS011;42154;51.992;5.896;2022-09-11T02:31:45;15.45;;;12.38;;
56239;SDS011;42154;51.992;5.896;2022-09-11T02:34:12;13.70;;;11.38;;
56239;SDS011;42154;51.992;5.896;2022-09-11T02:36:45;12.95;;;11.55;;
56239;SDS011;42154;51.992;5.896;2022-09-11T02:50:57;15.95;;;13.38;;
56239;SDS011;42154;51.992;5.896;2022-09-11T02:56:22;13.40;;;11.50;;
56239;SDS011;42154;51.992;5.896;2022-09-11T02:58:52;11.35;;;10.15;;
56239;SDS011;42154;51.992;5.896;2022-09-11T03:01:21;14.80;;;12.80;;
56239;SDS011;42154;51.992;5.896;2022-09-11T03:03:48;12.45;;;10.80;;
56239;SDS011;42154;51.992;5.896;2022-09-11T03:06:19;14.23;;;11.27;;
56239;SDS011;42154;51.992;5.896;2022-09-11T03:08:46;12.20;;;10.77;;
56239;SDS011;42154;51.992;5.896;2022-09-11T03:11:13;13.65;;;10.93;;
56239;SDS011;42154;51.992;5.896;2022-09-11T03:13:42;10.95;;;9.30;;
56239;SDS011;42154;51.992;5.896;2022-09-11T03:16:10;10.27;;;9.20;;
56239;SDS011;42154;51.992;5.896;2022-09-11T03:18:36;12.73;;;11.05;;
56239;SDS011;42154;51.992;5.896;2022-09-11T03:21:03;12.45;;;11.15;;
56239;SDS011;42154;51.992;5.896;2022-09-11T03:23:29;12.38;;;9.90;;
56239;SDS011;42154;51.992;5.896;2022-09-11T03:25:55;13.13;;;10.55;;
56239;SDS011;42154;51.992;5.896;2022-09-11T03:28:21;14.52;;;11.73;;
56239;SDS011;42154;51.992;5.896;2022-09-11T03:30:48;13.38;;;10.50;;
56239;SDS011;42154;51.992;5.896;2022-09-11T03:33:15;12.48;;;10.35;;
56239;SDS011;42154;51.992;5.896;2022-09-11T03:35:42;11.25;;;10.05;;
56239;SDS011;42154;51.992;5.896;2022-09-11T03:38:09;12.88;;;10.82;;
56239;SDS011;42154;51.992;5.896;2022-09-11T03:40:37;10.52;;;8.77;;
56239;SDS011;42154;51.992;5.896;2022-09-11T03:43:03;12.05;;;9.52;;
56239;SDS011;42154;51.992;5.896;2022-09-11T03:45:29;11.15;;;8.75;;
56239;SDS011;42154;51.992;5.896;2022-09-11T03:47:56;14.77;;;11.85;;
56239;SDS011;42154;51.992;5.896;2022-09-11T03:50:22;13.15;;;8.77;;
56239;SDS011;42154;51.992;5.896;2022-09-11T03:52:48;10.45;;;8.73;;
56239;SDS011;42154;51.992;5.896;2022-09-11T03:55:15;24.15;;;11.68;;
56239;SDS011;42154;51.992;5.896;2022-09-11T03:57:41;25.80;;;12.75;;
56239;SDS011;42154;51.992;5.896;2022-09-11T04:00:08;34.78;;;11.93;;
56239;SDS011;42154;51.992;5.896;2022-09-11T04:02:47;9.57;;;7.85;;
56239;SDS011;42154;51.992;5.896;2022-09-11T04:05:24;17.73;;;9.15;;
56239;SDS011;42154;51.992;5.896;2022-09-11T04:07:51;15.23;;;10.43;;
56239;SDS011;42154;51.992;5.896;2022-09-11T04:10:18;9.50;;;7.78;;
56239;SDS011;42154;51.992;5.896;2022-09-11T04:12:45;14.68;;;8.98;;
56239;SDS011;42154;51.992;5.896;2022-09-11T04:15:11;12.60;;;8.57;;
56239;SDS011;42154;51.992;5.896;2022-09-11T04:17:37;26.08;;;9.13;;
56239;SDS011;42154;51.992;5.896;2022-09-11T04:20:03;15.07;;;7.90;;
56239;SDS011;42154;51.992;5.896;2022-09-11T04:22:29;12.57;;;8.75;;
56239;SDS011;42154;51.992;5.896;2022-09-11T04:24:55;17.05;;;9.75;;
56239;SDS011;42154;51.992;5.896;2022-09-11T04:27:22;21.45;;;9.77;;
56239;SDS011;42154;51.992;5.896;2022-09-11T04:29:50;17.20;;;9.07;;
56239;SDS011;42154;51.992;5.896;2022-09-11T04:32:16;13.50;;;8.43;;
56239;SDS011;42154;51.992;5.896;2022-09-11T04:34:42;7.20;;;6.45;;
56239;SDS011;42154;51.992;5.896;2022-09-11T04:37:07;8.55;;;6.78;;
56239;SDS011;42154;51.992;5.896;2022-09-11T04:39:34;10.13;;;7.90;;
56239;SDS011;42154;51.992;5.896;2022-09-11T04:42:01;9.27;;;7.38;;
56239;SDS011;42154;51.992;5.896;2022-09-11T04:44:29;8.45;;;7.55;;
56239;SDS011;42154;51.992;5.896;2022-09-11T04:46:57;8.60;;;7.68;;
56239;SDS011;42154;51.992;5.896;2022-09-11T04:49:23;11.48;;;8.85;;
56239;SDS011;42154;51.992;5.896;2022-09-11T04:51:49;7.55;;;6.32;;
56239;SDS011;42154;51.992;5.896;2022-09-11T04:54:17;7.78;;;6.68;;
56239;SDS011;42154;51.992;5.896;2022-09-11T04:56:46;7.40;;;6.15;;
56239;SDS011;42154;51.992;5.896;2022-09-11T04:59:14;7.43;;;6.43;;
56239;SDS011;42154;51.992;5.896;2022-09-11T05:01:47;9.60;;;8.15;;
56239;SDS011;42154;51.992;5.896;2022-09-11T05:04:14;7.53;;;6.32;;
56239;SDS011;42154;51.992;5.896;2022-09-11T05:06:42;6.22;;;5.47;;
56239;SDS011;42154;51.992;5.896;2022-09-11T05:09:11;5.68;;;5.18;;
56239;SDS011;42154;51.992;5.896;2022-09-11T05:11:38;6.45;;;5.82;;
56239;SDS011;42154;51.992;5.896;2022-09-11T05:14:04;6.82;;;6.13;;
56239;SDS011;42154;51.992;5.896;2022-09-11T05:16:34;8.88;;;6.43;;
56239;SDS011;42154;51.992;5.896;2022-09-11T05:19:00;7.93;;;6.97;;
56239;SDS011;42154;51.992;5.896;2022-09-11T05:21:28;6.90;;;6.20;;
56239;SDS011;42154;51.992;5.896;2022-09-11T05:23:55;6.78;;;6.18;;
56239;SDS011;42154;51.992;5.896;2022-09-11T05:26:24;6.05;;;5.28;;
56239;SDS011;42154;51.992;5.896;2022-09-11T05:28:55;5.82;;;5.22;;
56239;SDS011;42154;51.992;5.896;2022-09-11T05:31:23;6.38;;;5.50;;
56239;SDS011;42154;51.992;5.896;2022-09-11T05:33:50;6.30;;;5.60;;
56239;SDS011;42154;51.992;5.896;2022-09-11T05:36:17;9.15;;;6.70;;
56239;SDS011;42154;51.992;5.896;2022-09-11T05:38:43;13.73;;;7.32;;
56239;SDS011;42154;51.992;5.896;2022-09-11T05:41:10;10.18;;;7.45;;
56239;SDS011;42154;51.992;5.896;2022-09-11T05:43:39;7.57;;;6.57;;
56239;SDS011;42154;51.992;5.896;2022-09-11T05:46:07;10.13;;;9.10;;
56239;SDS011;42154;51.992;5.896;2022-09-11T05:48:39;8.57;;;7.78;;
56239;SDS011;42154;51.992;5.896;2022-09-11T05:51:09;6.68;;;5.97;;
56239;SDS011;42154;51.992;5.896;2022-09-11T05:53:37;12.27;;;8.98;;
56239;SDS011;42154;51.992;5.896;2022-09-11T05:56:12;7.90;;;7.10;;
56239;SDS011;42154;51.992;5.896;2022-09-11T05:58:40;6.65;;;5.93;;
56239;SDS011;42154;51.992;5.896;2022-09-11T06:01:07;7.40;;;6.63;;
56239;SDS011;42154;51.992;5.896;2022-09-11T06:03:36;10.50;;;7.90;;
56239;SDS011;42154;51.992;5.896;2022-09-11T06:06:04;8.60;;;7.65;;
56239;SDS011;42154;51.992;5.896;2022-09-11T06:08:31;6.72;;;5.93;;
56239;SDS011;42154;51.992;5.896;2022-09-11T06:10:59;6.43;;;5.70;;
56239;SDS011;42154;51.992;5.896;2022-09-11T06:13:30;8.23;;;6.88;;
56239;SDS011;42154;51.992;5.896;2022-09-11T06:16:00;9.70;;;8.70;;
56239;SDS011;42154;51.992;5.896;2022-09-11T06:18:29;11.30;;;9.85;;
56239;SDS011;42154;51.992;5.896;2022-09-11T06:20:57;8.20;;;6.95;;
56239;SDS011;42154;51.992;5.896;2022-09-11T06:23:25;8.25;;;6.85;;
56239;SDS011;42154;51.992;5.896;2022-09-11T06:25:52;7.13;;;6.43;;
56239;SDS011;42154;51.992;5.896;2022-09-11T06:28:26;7.45;;;6.68;;
56239;SDS011;42154;51.992;5.896;2022-09-11T06:30:52;6.43;;;5.82;;
56239;SDS011;42154;51.992;5.896;2022-09-11T06:33:18;7.22;;;6.25;;
56239;SDS011;42154;51.992;5.896;2022-09-11T06:36:27;8.27;;;6.38;;
56239;SDS011;42154;51.992;5.896;2022-09-11T06:38:35;9.32;;;7.28;;
56239;SDS011;42154;51.992;5.896;2022-09-11T06:41:05;8.52;;;6.65;;
56239;SDS011;42154;51.992;5.896;2022-09-11T06:43:36;6.75;;;5.72;;
56239;SDS011;42154;51.992;5.896;2022-09-11T06:46:03;7.90;;;6.47;;
56239;SDS011;42154;51.992;5.896;2022-09-11T06:48:31;8.27;;;6.88;;
56239;SDS011;42154;51.992;5.896;2022-09-11T06:51:01;7.65;;;6.13;;
56239;SDS011;42154;51.992;5.896;2022-09-11T06:53:28;8.32;;;5.72;;
56239;SDS011;42154;51.992;5.896;2022-09-11T06:55:57;6.38;;;5.03;;
56239;SDS011;42154;51.992;5.896;2022-09-11T06:58:24;7.45;;;5.93;;
56239;SDS011;42154;51.992;5.896;2022-09-11T07:00:50;8.57;;;6.22;;
56239;SDS011;42154;51.992;5.896;2022-09-11T07:03:16;10.45;;;7.68;;
56239;SDS011;42154;51.992;5.896;2022-09-11T07:05:47;10.60;;;7.35;;
56239;SDS011;42154;51.992;5.896;2022-09-11T07:08:13;11.43;;;8.43;;
56239;SDS011;42154;51.992;5.896;2022-09-11T07:10:41;11.00;;;7.78;;
56239;SDS011;42154;51.992;5.896;2022-09-11T07:13:07;9.73;;;7.35;;
56239;SDS011;42154;51.992;5.896;2022-09-11T07:15:32;11.52;;;8.48;;
56239;SDS011;42154;51.992;5.896;2022-09-11T07:18:00;7.25;;;6.50;;
56239;SDS011;42154;51.992;5.896;2022-09-11T07:20:26;8.35;;;7.07;;
56239;SDS011;42154;51.992;5.896;2022-09-11T07:22:52;10.50;;;8.48;;
56239;SDS011;42154;51.992;5.896;2022-09-11T07:25:19;8.55;;;7.00;;
56239;SDS011;42154;51.992;5.896;2022-09-11T07:27:45;8.98;;;6.80;;
56239;SDS011;42154;51.992;5.896;2022-09-11T07:30:12;7.25;;;6.18;;
56239;SDS011;42154;51.992;5.896;2022-09-11T07:32:41;9.35;;;8.35;;
56239;SDS011;42154;51.992;5.896;2022-09-11T07:35:07;11.40;;;9.30;;
56239;SDS011;42154;51.992;5.896;2022-09-11T07:37:33;13.57;;;10.52;;
56239;SDS011;42154;51.992;5.896;2022-09-11T07:39:59;13.35;;;10.43;;
56239;SDS011;42154;51.992;5.896;2022-09-11T07:42:27;13.05;;;10.52;;
56239;SDS011;42154;51.992;5.896;2022-09-11T07:44:53;12.85;;;9.43;;
56239;SDS011;42154;51.992;5.896;2022-09-11T07:47:20;14.77;;;11.48;;
56239;SDS011;42154;51.992;5.896;2022-09-11T07:49:48;15.65;;;13.45;;
56239;SDS011;42154;51.992;5.896;2022-09-11T07:52:16;21.63;;;17.45;;
56239;SDS011;42154;51.992;5.896;2022-09-11T07:54:51;18.48;;;15.77;;
56239;SDS011;42154;51.992;5.896;2022-09-11T07:57:19;17.48;;;14.88;;
56239;SDS011;42154;51.992;5.896;2022-09-11T07:59:47;13.15;;;11.35;;
56239;SDS011;42154;51.992;5.896;2022-09-11T08:02:14;23.08;;;16.52;;
56239;SDS011;42154;51.992;5.896;2022-09-11T08:04:42;27.40;;;21.63;;
56239;SDS011;42154;51.992;5.896;2022-09-11T08:07:08;21.65;;;18.02;;
56239;SDS011;42154;51.992;5.896;2022-09-11T08:09:35;18.80;;;16.50;;
56239;SDS011;42154;51.992;5.896;2022-09-11T08:12:02;22.42;;;17.55;;
56239;SDS011;42154;51.992;5.896;2022-09-11T08:14:30;16.02;;;13.82;;
56239;SDS011;42154;51.992;5.896;2022-09-11T08:17:03;17.63;;;14.45;;
56239;SDS011;42154;51.992;5.896;2022-09-11T08:19:30;17.80;;;15.20;;
56239;SDS011;42154;51.992;5.896;2022-09-11T08:21:59;16.55;;;14.80;;
56239;SDS011;42154;51.992;5.896;2022-09-11T08:24:26;15.48;;;13.88;;
56239;SDS011;42154;51.992;5.896;2022-09-11T08:26:56;19.27;;;17.17;;
56239;SDS011;42154;51.992;5.896;2022-09-11T08:29:23;16.23;;;14.27;;
56239;SDS011;42154;51.992;5.896;2022-09-11T08:31:49;13.25;;;11.95;;
56239;SDS011;42154;51.992;5.896;2022-09-11T08:34:16;13.40;;;11.80;;
56239;SDS011;42154;51.992;5.896;2022-09-11T08:36:42;15.05;;;11.68;;
56239;SDS011;42154;51.992;5.896;2022-09-11T08:39:09;14.00;;;10.43;;
56239;SDS011;42154;51.992;5.896;2022-09-11T08:41:45;11.40;;;9.48;;
56239;SDS011;42154;51.992;5.896;2022-09-11T08:44:47;12.73;;;10.65;;
56239;SDS011;42154;51.992;5.896;2022-09-11T08:47:23;9.18;;;7.78;;
56239;SDS011;42154;51.992;5.896;2022-09-11T08:49:56;6.85;;;6.20;;
56239;SDS011;42154;51.992;5.896;2022-09-11T08:52:28;27.45;;;22.65;;
56239;SDS011;42154;51.992;5.896;2022-09-11T08:54:57;16.75;;;14.80;;
56239;SDS011;42154;51.992;5.896;2022-09-11T09:22:02;9.38;;;8.45;;
56239;SDS011;42154;51.992;5.896;2022-09-11T09:24:56;12.02;;;9.05;;
56239;SDS011;42154;51.992;5.896;2022-09-11T09:27:33;11.23;;;8.48;;
56239;SDS011;42154;51.992;5.896;2022-09-11T09:30:06;9.32;;;8.07;;
56239;SDS011;42154;51.992;5.896;2022-09-11T09:32:54;9.80;;;8.50;;
56239;SDS011;42154;51.992;5.896;2022-09-11T09:35:37;11.98;;;10.02;;
56239;SDS011;42154;51.992;5.896;2022-09-11T09:38:12;8.82;;;7.22;;
56239;SDS011;42154;51.992;5.896;2022-09-11T09:40:50;9.18;;;8.25;;
56239;SDS011;42154;51.992;5.896;2022-09-11T09:43:27;12.18;;;10.88;;
56239;SDS011;42154;51.992;5.896;2022-09-11T09:49:24;9.20;;;7.10;;
56239;SDS011;42154;51.992;5.896;2022-09-11T09:52:00;6.00;;;5.28;;
56239;SDS011;42154;51.992;5.896;2022-09-11T09:54:38;7.53;;;6.70;;
56239;SDS011;42154;51.992;5.896;2022-09-11T09:57:05;6.88;;;5.15;;
56239;SDS011;42154;51.992;5.896;2022-09-11T09:59:49;6.00;;;5.07;;
56239;SDS011;42154;51.992;5.896;2022-09-11T10:08:01;5.97;;;5.30;;
56239;SDS011;42154;51.992;5.896;2022-09-11T10:10:35;5.43;;;4.88;;
56239;SDS011;42154;51.992;5.896;2022-09-11T10:13:03;10.25;;;9.20;;
56239;SDS011;42154;51.992;5.896;2022-09-11T10:15:42;8.57;;;7.65;;
56239;SDS011;42154;51.992;5.896;2022-09-11T10:18:22;8.23;;;7.32;;
56239;SDS011;42154;51.992;5.896;2022-09-11T10:20:51;9.55;;;6.88;;
56239;SDS011;42154;51.992;5.896;2022-09-11T10:23:20;8.52;;;7.10;;
56239;SDS011;42154;51.992;5.896;2022-09-11T10:25:50;8.18;;;7.40;;
56239;SDS011;42154;51.992;5.896;2022-09-11T10:28:17;8.80;;;7.20;;
56239;SDS011;42154;51.992;5.896;2022-09-11T10:30:57;7.13;;;5.07;;
56239;SDS011;42154;51.992;5.896;2022-09-11T10:33:29;6.38;;;4.55;;
56239;SDS011;42154;51.992;5.896;2022-09-11T10:35:59;7.10;;;5.25;;
56239;SDS011;42154;51.992;5.896;2022-09-11T10:46:34;5.13;;;4.63;;
56239;SDS011;42154;51.992;5.896;2022-09-11T10:49:20;9.70;;;8.63;;
56239;SDS011;42154;51.992;5.896;2022-09-11T10:52:13;10.65;;;8.75;;
56239;SDS011;42154;51.992;5.896;2022-09-11T10:54:48;9.98;;;8.20;;
56239;SDS011;42154;51.992;5.896;2022-09-11T10:57:42;10.55;;;9.27;;
56239;SDS011;42154;51.992;5.896;2022-09-11T11:00:19;17.75;;;15.73;;
56239;SDS011;42154;51.992;5.896;2022-09-11T11:11:48;15.38;;;12.27;;
56239;SDS011;42154;51.992;5.896;2022-09-11T11:26:05;11.85;;;10.60;;
56239;SDS011;42154;51.992;5.896;2022-09-11T11:34:28;13.52;;;9.90;;
56239;SDS011;42154;51.992;5.896;2022-09-11T11:37:11;11.32;;;10.05;;
56239;SDS011;42154;51.992;5.896;2022-09-11T11:42:36;11.07;;;9.55;;
56239;SDS011;42154;51.992;5.896;2022-09-11T11:47:40;12.35;;;10.75;;
56239;SDS011;42154;51.992;5.896;2022-09-11T11:55:39;9.07;;;7.88;;
56239;SDS011;42154;51.992;5.896;2022-09-11T11:58:25;12.15;;;9.95;;
56239;SDS011;42154;51.992;5.896;2022-09-11T12:01:20;11.23;;;10.13;;
56239;SDS011;42154;51.992;5.896;2022-09-11T12:06:41;7.55;;;6.85;;
56239;SDS011;42154;51.992;5.896;2022-09-11T12:09:07;9.48;;;8.05;;
56239;SDS011;42154;51.992;5.896;2022-09-11T12:11:35;9.20;;;7.00;;
56239;SDS011;42154;51.992;5.896;2022-09-11T12:14:01;8.40;;;7.60;;
56239;SDS011;42154;51.992;5.896;2022-09-11T12:16:32;6.70;;;6.10;;
56239;SDS011;42154;51.992;5.896;2022-09-11T12:24:19;10.80;;;7.80;;
56239;SDS011;42154;51.992;5.896;2022-09-11T12:29:56;8.05;;;7.07;;
56239;SDS011;42154;51.992;5.896;2022-09-11T12:32:46;9.18;;;7.18;;
56239;SDS011;42154;51.992;5.896;2022-09-11T12:35:31;9.65;;;6.57;;
56239;SDS011;42154;51.992;5.896;2022-09-11T12:46:03;7.13;;;6.03;;
56239;SDS011;42154;51.992;5.896;2022-09-11T12:48:44;8.85;;;6.97;;
56239;SDS011;42154;51.992;5.896;2022-09-11T12:54:13;8.55;;;7.47;;
56239;SDS011;42154;51.992;5.896;2022-09-11T12:56:56;5.90;;;4.95;;
56239;SDS011;42154;51.992;5.896;2022-09-11T12:59:33;5.45;;;4.95;;
56239;SDS011;42154;51.992;5.896;2022-09-11T13:04:51;4.13;;;3.67;;
56239;SDS011;42154;51.992;5.896;2022-09-11T13:07:26;7.13;;;5.38;;
56239;SDS011;42154;51.992;5.896;2022-09-11T13:09:55;6.82;;;5.93;;
56239;SDS011;42154;51.992;5.896;2022-09-11T13:14:56;5.57;;;5.07;;
56239;SDS011;42154;51.992;5.896;2022-09-11T13:17:26;7.57;;;6.50;;
56239;SDS011;42154;51.992;5.896;2022-09-11T13:22:29;5.53;;;4.47;;
56239;SDS011;42154;51.992;5.896;2022-09-11T13:25:16;7.25;;;6.10;;
56239;SDS011;42154;51.992;5.896;2022-09-11T13:27:47;9.40;;;7.45;;
56239;SDS011;42154;51.992;5.896;2022-09-11T13:30:15;7.97;;;6.43;;
56239;SDS011;42154;51.992;5.896;2022-09-11T13:32:43;5.10;;;4.60;;
56239;SDS011;42154;51.992;5.896;2022-09-11T13:35:30;4.37;;;3.63;;
56239;SDS011;42154;51.992;5.896;2022-09-11T13:38:05;4.13;;;3.72;;
56239;SDS011;42154;51.992;5.896;2022-09-11T13:40:40;5.25;;;4.75;;
56239;SDS011;42154;51.992;5.896;2022-09-11T13:43:17;4.90;;;4.10;;
56239;SDS011;42154;51.992;5.896;2022-09-11T13:45:47;4.22;;;3.72;;
56239;SDS011;42154;51.992;5.896;2022-09-11T13:48:22;5.03;;;4.53;;
56239;SDS011;42154;51.992;5.896;2022-09-11T13:50:48;6.38;;;4.45;;
56239;SDS011;42154;51.992;5.896;2022-09-11T13:53:16;4.40;;;4.00;;
56239;SDS011;42154;51.992;5.896;2022-09-11T13:55:47;3.78;;;3.42;;
56239;SDS011;42154;51.992;5.896;2022-09-11T13:58:23;7.90;;;5.70;;
56239;SDS011;42154;51.992;5.896;2022-09-11T14:00:55;5.85;;;5.25;;
56239;SDS011;42154;51.992;5.896;2022-09-11T14:03:33;3.78;;;2.72;;
56239;SDS011;42154;51.992;5.896;2022-09-11T14:06:07;2.55;;;2.35;;
56239;SDS011;42154;51.992;5.896;2022-09-11T14:08:36;4.28;;;3.70;;
56239;SDS011;42154;51.992;5.896;2022-09-11T14:11:08;3.37;;;2.57;;
56239;SDS011;42154;51.992;5.896;2022-09-11T14:13:43;4.75;;;3.80;;
56239;SDS011;42154;51.992;5.896;2022-09-11T14:16:23;3.03;;;2.72;;
56239;SDS011;42154;51.992;5.896;2022-09-11T14:21:42;3.75;;;2.80;;
56239;SDS011;42154;51.992;5.896;2022-09-11T14:29:29;4.40;;;3.03;;
56239;SDS011;42154;51.992;5.896;2022-09-11T14:34:54;3.42;;;3.08;;
56239;SDS011;42154;51.992;5.896;2022-09-11T14:37:19;4.55;;;2.63;;
56239;SDS011;42154;51.992;5.896;2022-09-11T14:39:47;4.60;;;2.78;;
56239;SDS011;42154;51.992;5.896;2022-09-11T14:42:20;6.07;;;3.05;;
56239;SDS011;42154;51.992;5.896;2022-09-11T14:44:49;2.85;;;2.47;;
56239;SDS011;42154;51.992;5.896;2022-09-11T14:47:19;4.03;;;2.83;;
56239;SDS011;42154;51.992;5.896;2022-09-11T14:49:48;3.00;;;2.80;;
56239;SDS011;42154;51.992;5.896;2022-09-11T14:52:16;3.33;;;2.83;;
56239;SDS011;42154;51.992;5.896;2022-09-11T14:54:44;2.92;;;2.42;;
56239;SDS011;42154;51.992;5.896;2022-09-11T14:57:19;2.70;;;2.00;;
56239;SDS011;42154;51.992;5.896;2022-09-11T14:59:47;2.95;;;2.65;;
56239;SDS011;42154;51.992;5.896;2022-09-11T15:02:17;2.92;;;2.42;;
56239;SDS011;42154;51.992;5.896;2022-09-11T15:04:45;5.88;;;2.22;;
56239;SDS011;42154;51.992;5.896;2022-09-11T15:07:12;2.38;;;2.15;;
56239;SDS011;42154;51.992;5.896;2022-09-11T15:09:39;2.60;;;2.40;;
56239;SDS011;42154;51.992;5.896;2022-09-11T15:12:06;2.47;;;2.20;;
56239;SDS011;42154;51.992;5.896;2022-09-11T15:14:34;3.10;;;2.80;;
56239;SDS011;42154;51.992;5.896;2022-09-11T15:17:02;2.92;;;2.63;;
56239;SDS011;42154;51.992;5.896;2022-09-11T15:22:01;4.57;;;2.40;;
56239;SDS011;42154;51.992;5.896;2022-09-11T15:24:28;3.13;;;2.28;;
56239;SDS011;42154;51.992;5.896;2022-09-11T15:26:54;3.75;;;2.60;;
56239;SDS011;42154;51.992;5.896;2022-09-11T15:29:20;3.13;;;2.25;;
56239;SDS011;42154;51.992;5.896;2022-09-11T15:31:47;5.22;;;1.95;;
56239;SDS011;42154;51.992;5.896;2022-09-11T15:34:14;2.03;;;1.75;;
56239;SDS011;42154;51.992;5.896;2022-09-11T15:36:40;4.05;;;2.25;;
56239;SDS011;42154;51.992;5.896;2022-09-11T15:39:09;2.78;;;1.92;;
56239;SDS011;42154;51.992;5.896;2022-09-11T15:41:37;3.50;;;2.92;;
56239;SDS011;42154;51.992;5.896;2022-09-11T15:44:07;2.80;;;2.20;;
56239;SDS011;42154;51.992;5.896;2022-09-11T15:46:45;3.78;;;2.53;;
56239;SDS011;42154;51.992;5.896;2022-09-11T15:49:11;2.40;;;2.10;;
56239;SDS011;42154;51.992;5.896;2022-09-11T15:51:37;2.45;;;2.15;;
56239;SDS011;42154;51.992;5.896;2022-09-11T15:54:03;2.28;;;2.10;;
56239;SDS011;42154;51.992;5.896;2022-09-11T15:56:29;2.40;;;2.20;;
56239;SDS011;42154;51.992;5.896;2022-09-11T15:58:56;2.47;;;2.28;;
56239;SDS011;42154;51.992;5.896;2022-09-11T16:01:23;2.53;;;2.10;;
56239;SDS011;42154;51.992;5.896;2022-09-11T16:03:57;2.67;;;2.35;;
56239;SDS011;42154;51.992;5.896;2022-09-11T16:06:25;2.60;;;2.40;;
56239;SDS011;42154;51.992;5.896;2022-09-11T16:08:55;3.70;;;2.90;;
56239;SDS011;42154;51.992;5.896;2022-09-11T16:11:23;2.40;;;2.20;;
56239;SDS011;42154;51.992;5.896;2022-09-11T16:13:52;2.92;;;2.70;;
56239;SDS011;42154;51.992;5.896;2022-09-11T16:16:19;3.07;;;2.77;;
56239;SDS011;42154;51.992;5.896;2022-09-11T16:18:45;3.60;;;2.80;;
56239;SDS011;42154;51.992;5.896;2022-09-11T16:21:11;2.97;;;2.67;;
56239;SDS011;42154;51.992;5.896;2022-09-11T16:23:39;2.90;;;2.67;;
56239;SDS011;42154;51.992;5.896;2022-09-11T16:26:06;3.85;;;2.88;;
56239;SDS011;42154;51.992;5.896;2022-09-11T16:28:35;4.07;;;2.70;;
56239;SDS011;42154;51.992;5.896;2022-09-11T16:31:03;2.92;;;2.35;;
56239;SDS011;42154;51.992;5.896;2022-09-11T16:33:30;3.15;;;2.80;;
56239;SDS011;42154;51.992;5.896;2022-09-11T16:36:00;3.63;;;2.40;;
56239;SDS011;42154;51.992;5.896;2022-09-11T16:38:32;4.07;;;3.22;;
56239;SDS011;42154;51.992;5.896;2022-09-11T16:41:01;3.38;;;3.00;;
56239;SDS011;42154;51.992;5.896;2022-09-11T16:43:31;3.75;;;3.33;;
56239;SDS011;42154;51.992;5.896;2022-09-11T16:45:56;3.13;;;2.83;;
56239;SDS011;42154;51.992;5.896;2022-09-11T16:48:22;3.17;;;2.88;;
56239;SDS011;42154;51.992;5.896;2022-09-11T16:50:50;5.50;;;3.25;;
56239;SDS011;42154;51.992;5.896;2022-09-11T16:53:19;3.30;;;2.92;;
56239;SDS011;42154;51.992;5.896;2022-09-11T16:55:49;3.45;;;3.13;;
56239;SDS011;42154;51.992;5.896;2022-09-11T16:58:17;6.90;;;3.72;;
56239;SDS011;42154;51.992;5.896;2022-09-11T17:00:43;3.42;;;3.13;;
56239;SDS011;42154;51.992;5.896;2022-09-11T17:03:09;3.58;;;3.00;;
56239;SDS011;42154;51.992;5.896;2022-09-11T17:05:35;3.40;;;2.70;;
56239;SDS011;42154;51.992;5.896;2022-09-11T17:08:01;4.15;;;3.35;;
56239;SDS011;42154;51.992;5.896;2022-09-11T17:10:27;4.28;;;3.25;;
56239;SDS011;42154;51.992;5.896;2022-09-11T17:12:54;3.60;;;3.30;;
56239;SDS011;42154;51.992;5.896;2022-09-11T17:15:19;4.50;;;3.35;;
56239;SDS011;42154;51.992;5.896;2022-09-11T17:17:45;3.75;;;3.42;;
56239;SDS011;42154;51.992;5.896;2022-09-11T17:20:12;4.55;;;3.38;;
56239;SDS011;42154;51.992;5.896;2022-09-11T17:22:39;6.95;;;3.53;;
56239;SDS011;42154;51.992;5.896;2022-09-11T17:25:05;4.03;;;3.42;;
56239;SDS011;42154;51.992;5.896;2022-09-11T17:27:31;4.10;;;3.70;;
56239;SDS011;42154;51.992;5.896;2022-09-11T17:29:57;5.10;;;3.22;;
56239;SDS011;42154;51.992;5.896;2022-09-11T17:32:23;3.58;;;3.28;;
56239;SDS011;42154;51.992;5.896;2022-09-11T17:34:50;4.57;;;3.55;;
56239;SDS011;42154;51.992;5.896;2022-09-11T17:37:16;3.60;;;3.30;;